Time;durP1;ratioP1;P1;durP2;ratioP2;P2;SDS_P1;SDS_P2;PMS_P1;PMS_P2;Temp;Humidity;BMP_temperature;BMP_pressure;BME280_temperature;BME280_humidity;BME280_pressure;Samples;Min_cycle;Max_cycle;Signal;HPM_P1;HPM_P2
2023/07/12 00:01:39;;;;;;;12.50;6.60;;;;;;;17.34;67.73;98571.73;225894;1280;22561;-72
2023/07/12 00:06:42;;;;;;;14.60;6.50;;;;;;;17.31;67.72;98571.48;225669;1280;22556;-72
2023/07/12 00:12:14;;;;;;;14.10;6.70;;;;;;;17.25;68.26;98573.35;225701;1280;22540;-72
2023/07/12 00:17:21;;;;;;;11.70;6.80;;;;;;;17.18;68.50;98570.89;225832;1280;23611;-73
2023/07/12 00:22:32;;;;;;;12.70;7.10;;;;;;;17.09;68.70;98565.75;225800;1278;24203;-73
2023/07/12 00:28:24;;;;;;;11.70;6.90;;;;;;;16.98;69.04;98556.98;225867;1280;22556;-72
2023/07/12 00:33:29;;;;;;;17.30;6.30;;;;;;;16.91;69.64;98553.99;225899;1278;22546;-72
2023/07/12 00:38:34;;;;;;;12.70;6.80;;;;;;;16.84;69.81;98549.52;225775;1278;25464;-71
2023/07/12 00:44:33;;;;;;;12.00;6.10;;;;;;;16.76;69.76;98546.73;225701;1280;22623;-72
2023/07/12 00:55:51;;;;;;;8.00;6.50;;;;;;;16.56;70.51;98548.23;225773;1280;22543;-72
2023/07/12 01:00:56;;;;;;;12.90;7.00;;;;;;;16.51;70.42;98536.41;225866;1275;22553;-72
2023/07/12 01:06:03;;;;;;;14.30;7.20;;;;;;;16.47;70.59;98535.10;225735;1280;25384;-72
2023/07/12 01:11:38;;;;;;;10.80;6.80;;;;;;;16.46;71.04;98537.60;225713;1280;22578;-72
2023/07/12 01:17:08;;;;;;;11.30;7.40;;;;;;;16.45;71.15;98532.19;225738;1280;22540;-72
2023/07/12 01:22:10;;;;;;;16.30;7.40;;;;;;;16.36;71.11;98532.60;225980;1277;23035;-72
2023/07/12 01:27:19;;;;;;;13.30;6.70;;;;;;;16.27;71.34;98516.82;225860;1275;22546;-72
2023/07/12 01:32:22;;;;;;;11.30;7.00;;;;;;;16.18;71.56;98503.02;225837;1275;22549;-72
2023/07/12 01:37:25;;;;;;;11.50;6.80;;;;;;;16.07;71.83;98496.63;225864;1278;25571;-72
2023/07/12 01:42:36;;;;;;;11.60;6.60;;;;;;;16.02;71.96;98491.11;225886;1273;25201;-73
2023/07/12 01:47:41;;;;;;;9.90;7.00;;;;;;;15.92;71.93;98482.98;225916;1276;25306;-73
2023/07/12 01:52:43;;;;;;;10.40;6.90;;;;;;;15.84;72.13;98475.66;225917;1277;22589;-72
2023/07/12 01:57:46;;;;;;;12.20;7.90;;;;;;;15.76;72.71;98466.71;225647;1278;22539;-72
2023/07/12 02:02:48;;;;;;;14.50;7.80;;;;;;;15.72;72.84;98465.66;225977;1276;25243;-72
2023/07/12 02:07:52;;;;;;;11.90;8.40;;;;;;;15.68;73.31;98457.26;225880;1280;22579;-73
2023/07/12 02:12:54;;;;;;;10.70;8.30;;;;;;;15.66;73.63;98453.80;225837;1278;22535;-72
2023/07/12 02:17:57;;;;;;;12.70;8.90;;;;;;;15.60;73.68;98453.31;225829;1276;22536;-72
2023/07/12 02:23:30;;;;;;;15.10;9.10;;;;;;;15.51;73.73;98445.69;225851;1278;22578;-73
2023/07/12 02:29:04;;;;;;;12.90;9.40;;;;;;;15.48;74.45;98443.34;225812;1280;22541;-72
2023/07/12 02:34:15;;;;;;;12.20;8.50;;;;;;;15.48;74.57;98428.85;225962;1276;25395;-72
2023/07/12 02:39:59;;;;;;;14.20;7.90;;;;;;;15.48;74.57;98412.83;225869;1280;24258;-73
2023/07/12 02:45:24;;;;;;;;;;;;;;;;;;;;;
2023/07/12 02:50:26;;;;;;;13.20;8.40;;;;;;;15.49;75.07;98405.25;225848;1278;22557;-71
2023/07/12 02:55:36;;;;;;;12.80;8.50;;;;;;;15.51;75.31;98414.92;225964;1280;22557;-72
2023/07/12 03:00:41;;;;;;;11.60;8.50;;;;;;;15.54;75.12;98422.91;225931;1280;22533;-72
2023/07/12 03:05:43;;;;;;;16.50;9.50;;;;;;;15.60;75.26;98429.77;225950;1276;23020;-72
2023/07/12 03:10:45;;;;;;;12.00;8.10;;;;;;;15.68;75.37;98426.73;225810;1280;22536;-72
2023/07/12 03:15:47;;;;;;;14.80;8.40;;;;;;;15.78;75.09;98425.75;225805;1275;22605;-72
2023/07/12 03:20:50;;;;;;;12.20;9.40;;;;;;;15.92;75.46;98408.92;225949;1277;22618;-73
2023/07/12 03:25:53;;;;;;;10.60;8.40;;;;;;;16.10;75.16;98411.34;225931;1277;23162;-73
2023/07/12 03:31:05;;;;;;;10.70;8.80;;;;;;;16.31;74.54;98418.55;226003;1277;22554;-72
2023/07/12 03:36:37;;;;;;;10.10;7.80;;;;;;;16.50;74.29;98414.00;225883;1280;22597;-73
2023/07/12 03:41:39;;;;;;;11.10;8.30;;;;;;;16.70;74.30;98405.35;226001;1277;22563;-73
2023/07/12 03:46:41;;;;;;;11.40;8.00;;;;;;;16.90;73.60;98394.55;225954;1273;22560;-73
2023/07/12 03:51:46;;;;;;;11.80;8.00;;;;;;;17.12;73.47;98390.11;225872;1278;22547;-71
2023/07/12 03:56:48;;;;;;;12.60;7.40;;;;;;;17.34;73.38;98390.48;225947;1276;22544;-72
2023/07/12 04:01:51;;;;;;;10.20;7.80;;;;;;;17.48;73.26;98388.21;225926;1275;23761;-72
2023/07/12 04:06:53;;;;;;;13.90;7.60;;;;;;;17.55;73.38;98389.55;225742;1279;22572;-72
2023/07/12 04:11:55;;;;;;;10.40;7.20;;;;;;;17.63;73.43;98392.22;225970;1276;22543;-72
2023/07/12 04:16:57;;;;;;;11.00;7.50;;;;;;;17.72;73.29;98393.17;225836;1278;22536;-73
2023/07/12 04:21:59;;;;;;;9.70;7.40;;;;;;;17.83;73.32;98399.27;225768;1279;22536;-72
2023/07/12 04:27:02;;;;;;;12.40;7.20;;;;;;;17.98;73.25;98397.26;225869;1280;22650;-73
2023/07/12 04:32:05;;;;;;;8.40;7.40;;;;;;;18.15;72.87;98392.68;225888;1278;22548;-72
2023/07/12 04:37:08;;;;;;;9.20;6.90;;;;;;;18.34;72.50;98384.77;226037;1272;25307;-72
2023/07/12 04:42:10;;;;;;;9.60;7.40;;;;;;;18.52;72.14;98375.69;225963;1276;22544;-72
2023/07/12 04:47:15;;;;;;;8.80;6.90;;;;;;;18.71;72.01;98361.80;225819;1278;22570;-72
2023/07/12 04:52:17;;;;;;;10.30;6.90;;;;;;;18.92;71.73;98346.09;225980;1274;22592;-72
2023/07/12 04:57:19;;;;;;;8.30;6.60;;;;;;;19.13;71.49;98351.91;225988;1277;22553;-72
2023/07/12 05:02:21;;;;;;;8.70;6.90;;;;;;;19.39;71.27;98347.06;225852;1278;22527;-72
2023/07/12 05:07:34;;;;;;;;;;;;;;;;;;;;;
2023/07/12 05:12:41;;;;;;;10.50;6.70;;;;;;;20.03;70.69;98350.75;225902;1280;24430;-72
2023/07/12 05:17:43;;;;;;;11.70;7.70;;;;;;;20.29;70.20;98351.48;225993;1277;22564;-72
2023/07/12 05:22:47;;;;;;;10.90;8.20;;;;;;;20.44;69.84;98348.64;225791;1280;22633;-73
2023/07/12 05:27:49;;;;;;;17.40;8.40;;;;;;;20.55;69.22;98362.64;225944;1276;22668;-73
2023/07/12 05:32:51;;;;;;;15.20;7.60;;;;;;;20.52;68.56;98371.21;225823;1278;24746;-73
2023/07/12 05:37:54;;;;;;;13.20;7.20;;;;;;;20.48;68.26;98378.91;225828;1280;22536;-72
2023/07/12 05:43:04;;;;;;;10.40;7.00;;;;;;;20.47;68.09;98389.30;225684;1276;22664;-72
2023/07/12 05:48:06;;;;;;;9.90;6.80;;;;;;;20.51;68.12;98388.33;225577;1278;22547;-71
2023/07/12 05:53:08;;;;;;;10.50;6.60;;;;;;;20.68;68.08;98381.59;225706;1280;24948;-73
2023/07/12 05:58:11;;;;;;;11.70;7.50;;;;;;;20.93;67.66;98373.07;225411;1267;22720;-73
2023/07/12 06:03:13;;;;;;;10.70;6.00;;;;;;;21.20;67.28;98362.06;225556;1266;22577;-71
2023/07/12 06:08:29;;;;;;;7.60;6.10;;;;;;;21.46;66.90;98349.48;225641;1268;23019;-71
2023/07/12 06:13:34;;;;;;;9.70;6.30;;;;;;;21.70;66.20;98331.33;225422;1262;22615;-72
2023/07/12 06:18:39;;;;;;;8.80;6.80;;;;;;;21.89;65.90;98324.63;225445;1262;23890;-72
2023/07/12 06:23:44;;;;;;;10.80;7.00;;;;;;;22.10;65.50;98317.83;225460;1267;162508;-72
2023/07/12 06:29:09;;;;;;;8.40;6.40;;;;;;;22.30;64.94;98311.95;225528;1275;22528;-72
2023/07/12 06:34:17;;;;;;;13.30;6.40;;;;;;;22.62;64.57;98303.77;225602;1277;22538;-72
2023/07/12 06:39:28;;;;;;;10.40;6.70;;;;;;;22.98;63.68;98301.98;225621;1260;24312;-72
2023/07/12 06:44:31;;;;;;;10.60;6.70;;;;;;;23.44;63.11;98289.22;225519;1273;22555;-73
2023/07/12 06:49:33;;;;;;;26.00;21.80;;;;;;;24.02;62.65;98279.48;225415;1262;22544;-73
2023/07/12 06:54:36;;;;;;;8.70;7.80;;;;;;;24.62;61.54;98280.67;225476;1273;24254;-73
2023/07/12 06:59:39;;;;;;;12.30;7.80;;;;;;;24.98;60.12;98277.80;225438;1273;22570;-72
2023/07/12 07:04:42;;;;;;;10.00;7.80;;;;;;;25.26;59.64;98269.24;225593;1266;22609;-73
2023/07/12 07:09:45;;;;;;;9.80;7.70;;;;;;;25.58;59.46;98263.02;225462;1259;24225;-72
2023/07/12 07:14:47;;;;;;;10.40;7.70;;;;;;;25.92;58.62;98261.92;225752;1269;22632;-72
2023/07/12 07:19:49;;;;;;;14.10;8.10;;;;;;;26.25;58.34;98278.67;225702;1266;22534;-71
2023/07/12 07:24:52;;;;;;;10.70;7.80;;;;;;;26.50;57.45;98277.61;225509;1259;22554;-73
2023/07/12 07:29:54;;;;;;;10.30;8.00;;;;;;;26.74;57.08;98270.52;225580;1274;22536;-72
2023/07/12 07:34:56;;;;;;;9.40;8.20;;;;;;;26.99;57.05;98275.98;225366;1262;22535;-73
2023/07/12 07:39:58;;;;;;;17.40;8.30;;;;;;;27.22;56.72;98269.20;225524;1262;22549;-75
2023/07/12 07:45:10;;;;;;;12.00;8.00;;;;;;;27.30;56.29;98248.70;225195;1260;22548;-74
2023/07/12 07:50:12;;;;;;;10.40;7.80;;;;;;;27.41;56.36;98254.16;225463;1262;22562;-75
2023/07/12 07:55:15;;;;;;;10.10;8.50;;;;;;;27.70;56.22;98255.52;225245;1272;22676;-75
2023/07/12 08:00:18;;;;;;;9.20;8.30;;;;;;;27.98;55.85;98258.27;225429;1278;24220;-74
2023/07/12 08:05:20;;;;;;;11.20;9.40;;;;;;;28.24;55.52;98250.81;225599;1271;22544;-74
2023/07/12 08:10:22;;;;;;;11.30;8.40;;;;;;;28.33;54.68;98246.20;225532;1268;22544;-74
2023/07/12 08:15:25;;;;;;;9.30;8.30;;;;;;;28.16;54.34;98250.42;225549;1273;22540;-74
2023/07/12 08:20:27;;;;;;;19.50;9.90;;;;;;;28.04;54.76;98253.20;225500;1278;25242;-74
2023/07/12 08:25:29;;;;;;;12.50;9.50;;;;;;;27.98;54.90;98257.94;225517;1278;22540;-72
2023/07/12 08:30:31;;;;;;;16.80;10.20;;;;;;;27.81;54.83;98281.48;225639;1265;22548;-75
2023/07/12 08:35:34;;;;;;;17.10;9.60;;;;;;;27.57;55.16;98286.39;225564;1276;23068;-74
2023/07/12 08:40:51;;;;;;;16.10;9.80;;;;;;;27.37;55.50;98286.67;225307;1276;22543;-74
2023/07/12 08:45:56;;;;;;;10.40;9.50;;;;;;;27.27;55.99;98293.44;225363;1277;22616;-73
2023/07/12 08:51:01;;;;;;;10.90;9.10;;;;;;;27.33;56.21;98301.35;225706;1276;22539;-72
2023/07/12 08:56:04;;;;;;;10.10;8.10;;;;;;;27.41;56.50;98309.14;225454;1279;22572;-74
2023/07/12 09:01:15;;;;;;;10.60;8.90;;;;;;;27.52;56.10;98318.21;225719;1275;22520;-73
2023/07/12 09:06:17;;;;;;;10.40;8.40;;;;;;;27.57;56.08;98319.52;225684;1280;22540;-72
2023/07/12 09:11:28;;;;;;;9.70;8.40;;;;;;;27.57;55.87;98321.60;225659;1276;22554;-71
2023/07/12 09:16:33;;;;;;;11.00;8.10;;;;;;;27.48;56.21;98323.90;225367;1279;24325;-74
2023/07/12 09:21:38;;;;;;;8.90;8.00;;;;;;;27.42;55.94;98320.81;225684;1276;22540;-73
2023/07/12 09:26:40;;;;;;;9.80;8.20;;;;;;;27.48;56.01;98322.72;225698;1275;22548;-74
2023/07/12 09:31:45;;;;;;;8.40;7.60;;;;;;;27.74;55.83;98310.89;225460;1278;22547;-74
2023/07/12 09:36:55;;;;;;;8.50;7.70;;;;;;;28.08;55.41;98309.27;225585;1278;22536;-73
2023/07/12 09:42:01;;;;;;;9.00;8.20;;;;;;;28.35;54.95;98300.53;225646;1257;22571;-73
2023/07/12 09:47:26;;;;;;;8.30;7.50;;;;;;;28.49;54.47;98289.75;225542;1276;22591;-72
2023/07/12 09:52:48;;;;;;;10.70;8.00;;;;;;;28.64;54.20;98288.11;225430;1280;22562;-73
2023/07/12 09:57:57;;;;;;;9.10;7.70;;;;;;;28.86;53.54;98277.95;225701;1278;22541;-73
2023/07/12 10:03:23;;;;;;;8.60;7.90;;;;;;;29.13;53.54;98277.79;225575;1275;23273;-74
2023/07/12 10:08:36;;;;;;;7.40;6.70;;;;;;;29.38;52.84;98274.44;225539;1276;22560;-74
2023/07/12 10:14:02;;;;;;;7.50;6.90;;;;;;;29.55;51.49;98276.05;225145;1276;22563;-74
2023/07/12 10:19:25;;;;;;;9.80;7.10;;;;;;;29.64;51.51;98279.77;225115;1278;22649;-74
2023/07/12 10:24:36;;;;;;;7.60;6.90;;;;;;;29.84;51.33;98287.46;225084;1280;22547;-74
2023/07/12 10:30:18;;;;;;;6.90;6.20;;;;;;;30.06;50.53;98293.69;225332;1272;25275;-75
2023/07/12 10:35:38;;;;;;;7.20;6.30;;;;;;;30.23;50.69;98293.18;227085;1277;24694;-73
2023/07/12 10:40:55;;;;;;;9.30;6.60;;;;;;;30.37;49.99;98292.05;225230;1279;23732;-73
2023/07/12 10:46:23;;;;;;;7.20;6.50;;;;;;;30.43;49.41;98296.02;225333;1278;21764;-73
2023/07/12 10:51:37;;;;;;;8.30;7.30;;;;;;;30.11;49.18;98308.69;225458;1262;22547;-73
2023/07/12 10:57:25;;;;;;;9.40;7.30;;;;;;;29.63;49.80;98308.66;225438;1279;22571;-72
2023/07/12 11:02:39;;;;;;;8.00;7.20;;;;;;;29.20;50.65;98294.11;225548;1276;22571;-73
2023/07/12 11:07:42;;;;;;;7.90;7.20;;;;;;;28.84;51.25;98294.80;225519;1263;22581;-74
2023/07/12 11:12:54;;;;;;;8.60;7.70;;;;;;;28.44;51.90;98293.00;225489;1262;22554;-73
2023/07/12 11:18:00;;;;;;;8.50;7.20;;;;;;;27.97;52.42;98313.92;225375;1276;22543;-73
2023/07/12 11:23:06;;;;;;;8.40;7.60;;;;;;;27.56;53.12;98321.92;225530;1257;22555;-74
2023/07/12 11:28:25;;;;;;;8.10;7.30;;;;;;;27.25;53.82;98325.22;225390;1259;22557;-74
2023/07/12 11:33:32;;;;;;;8.70;8.00;;;;;;;27.06;54.62;98321.17;225306;1262;22541;-74
2023/07/12 11:38:37;;;;;;;9.40;7.50;;;;;;;27.01;55.01;98321.29;225112;1276;22595;-72
2023/07/12 11:43:40;;;;;;;9.50;8.50;;;;;;;26.97;55.20;98319.38;225268;1273;24612;-72
2023/07/12 11:49:03;;;;;;;9.20;8.20;;;;;;;26.97;55.64;98313.63;225286;1274;22573;-74
2023/07/12 11:54:22;;;;;;;9.70;8.70;;;;;;;27.09;55.83;98314.71;225299;1263;22612;-73
2023/07/12 11:59:28;;;;;;;8.40;7.50;;;;;;;27.30;55.79;98314.84;225498;1280;23105;-74
2023/07/12 12:04:31;;;;;;;8.90;6.80;;;;;;;27.45;55.61;98315.40;225406;1274;25552;-75
2023/07/12 12:09:37;;;;;;;8.00;7.20;;;;;;;27.66;55.48;98319.73;225448;1277;22774;-74
2023/07/12 12:14:41;;;;;;;7.30;6.70;;;;;;;27.85;55.28;98319.03;225289;1277;22547;-73
2023/07/12 12:19:48;;;;;;;7.20;6.50;;;;;;;28.19;54.80;98318.66;225719;1279;22594;-74
2023/07/12 12:24:56;;;;;;;6.60;6.00;;;;;;;28.52;54.22;98324.79;225464;1270;22535;-74
2023/07/12 12:30:16;;;;;;;6.70;6.10;;;;;;;28.76;53.91;98323.94;225308;1277;22570;-73
2023/07/12 12:35:18;;;;;;;6.90;6.30;;;;;;;28.96;53.63;98332.52;225365;1279;22575;-76
2023/07/12 12:40:20;;;;;;;6.50;5.70;;;;;;;29.18;53.40;98318.83;225334;1273;22658;-74
2023/07/12 12:45:26;;;;;;;5.70;5.20;;;;;;;29.37;52.49;98306.27;225210;1279;22549;-73
2023/07/12 12:50:28;;;;;;;6.00;5.40;;;;;;;29.43;52.00;98307.97;225236;1279;22570;-73
2023/07/12 12:55:36;;;;;;;5.80;5.30;;;;;;;29.49;52.22;98312.73;225561;1274;25187;-73
2023/07/12 13:00:58;;;;;;;5.70;5.30;;;;;;;29.81;52.30;98314.14;225283;1277;23070;-73
2023/07/12 13:06:04;;;;;;;5.20;4.60;;;;;;;30.19;51.69;98319.27;225365;1273;22551;-75
2023/07/12 13:11:08;;;;;;;3.80;3.50;;;;;;;30.42;50.92;98314.75;225213;1280;25269;-74
2023/07/12 13:16:30;;;;;;;4.10;3.70;;;;;;;30.60;50.30;98316.29;225346;1281;22577;-74
2023/07/12 13:21:35;;;;;;;4.50;3.80;;;;;;;30.77;49.71;98317.14;225525;1262;23117;-74
2023/07/12 13:26:39;;;;;;;5.40;3.60;;;;;;;30.66;49.41;98317.29;225658;1263;24250;-76
2023/07/12 13:31:41;;;;;;;4.00;3.60;;;;;;;30.66;49.62;98312.15;225623;1277;25287;-75
2023/07/12 13:36:46;;;;;;;4.20;3.20;;;;;;;30.73;49.70;98308.73;225624;1269;22563;-74
2023/07/12 13:41:48;;;;;;;3.70;3.40;;;;;;;30.78;49.44;98307.92;225459;1274;22933;-74
2023/07/12 13:46:54;;;;;;;3.30;3.00;;;;;;;30.70;49.23;98285.27;225514;1280;22545;-74
2023/07/12 13:51:56;;;;;;;3.50;3.10;;;;;;;30.71;48.85;98284.20;225327;1280;22559;-76
2023/07/12 13:56:58;;;;;;;3.00;2.80;;;;;;;30.68;48.67;98277.64;225465;1273;22635;-75
2023/07/12 14:02:03;;;;;;;3.30;2.80;;;;;;;30.73;48.43;98279.58;225293;1270;23831;-75
2023/07/12 14:07:12;;;;;;;3.80;3.20;;;;;;;30.81;48.26;98282.86;225105;1279;22745;-73
2023/07/12 14:12:34;;;;;;;3.30;3.00;;;;;;;30.96;48.50;98281.77;225199;1279;22588;-74
2023/07/12 14:17:36;;;;;;;3.10;2.90;;;;;;;31.19;48.20;98270.24;225308;1280;22545;-74
2023/07/12 14:22:38;;;;;;;3.40;3.20;;;;;;;31.29;47.80;98265.46;225358;1281;22559;-81
2023/07/12 14:27:40;;;;;;;3.50;3.10;;;;;;;31.26;47.72;98257.94;225507;1280;22537;-73
2023/07/12 14:32:45;;;;;;;3.50;3.20;;;;;;;31.32;48.18;98255.43;225752;1278;22554;-75
2023/07/12 14:37:49;;;;;;;3.70;3.10;;;;;;;31.46;48.27;98248.58;225650;1280;22616;-74
2023/07/12 14:42:54;;;;;;;3.80;3.20;;;;;;;31.42;48.20;98243.98;225501;1281;25374;-75
2023/07/12 14:48:06;;;;;;;4.40;3.40;;;;;;;31.35;48.19;98243.64;225673;1281;22550;-74
2023/07/12 14:53:14;;;;;;;3.50;3.30;;;;;;;31.26;48.06;98232.44;225592;1280;25333;-74
2023/07/12 14:58:17;;;;;;;3.60;3.40;;;;;;;31.06;48.25;98229.36;225607;1279;22550;-73
2023/07/12 15:03:23;;;;;;;3.90;3.40;;;;;;;31.01;48.36;98238.77;225583;1281;24229;-74
2023/07/12 15:08:28;;;;;;;4.20;3.40;;;;;;;31.00;48.49;98232.83;225691;1279;25394;-74
2023/07/12 15:13:30;;;;;;;3.40;3.20;;;;;;;31.05;48.62;98232.34;225809;1276;25240;-73
2023/07/12 15:18:32;;;;;;;3.40;3.10;;;;;;;31.02;48.26;98227.04;225541;1280;22552;-73
2023/07/12 15:23:35;;;;;;;4.70;3.60;;;;;;;30.81;48.26;98224.48;225745;1278;22554;-74
2023/07/12 15:28:38;;;;;;;3.60;3.40;;;;;;;30.70;48.86;98232.09;225572;1280;22543;-74
2023/07/12 15:33:41;;;;;;;3.70;3.40;;;;;;;30.67;48.84;98233.39;225713;1278;22584;-74
2023/07/12 15:38:46;;;;;;;5.20;4.00;;;;;;;30.78;48.91;98226.77;225759;1281;22593;-74
2023/07/12 15:43:54;;;;;;;4.20;3.70;;;;;;;31.03;48.99;98216.92;225546;1280;22564;-74
2023/07/12 15:49:00;;;;;;;4.60;3.30;;;;;;;31.28;48.51;98211.20;225724;1278;22547;-75
2023/07/12 15:54:15;;;;;;;4.00;3.50;;;;;;;31.31;47.77;98209.64;225643;1278;22555;-73
2023/07/12 15:59:28;;;;;;;2.80;2.60;;;;;;;31.18;47.49;98209.20;225639;1281;22531;-73
2023/07/12 16:04:31;;;;;;;3.20;3.00;;;;;;;30.99;47.12;98208.35;225750;1280;22544;-73
2023/07/12 16:09:33;;;;;;;4.00;3.20;;;;;;;30.90;47.45;98196.25;225732;1279;22540;-74
2023/07/12 16:14:35;;;;;;;3.10;2.80;;;;;;;30.76;47.32;98201.85;225761;1279;22540;-75
2023/07/12 16:19:37;;;;;;;4.50;3.00;;;;;;;30.70;47.59;98199.52;225769;1278;24222;-74
2023/07/12 16:24:39;;;;;;;3.60;3.30;;;;;;;30.69;47.70;98202.45;225710;1278;22587;-74
2023/07/12 16:29:42;;;;;;;4.50;4.20;;;;;;;30.54;47.39;98206.45;225752;1269;22541;-74
2023/07/12 16:34:44;;;;;;;3.60;3.30;;;;;;;30.29;47.77;98212.58;225598;1281;22583;-75
2023/07/12 16:39:47;;;;;;;3.60;3.10;;;;;;;30.10;48.35;98211.63;225585;1275;22547;-75
2023/07/12 16:44:50;;;;;;;4.70;3.50;;;;;;;30.03;48.48;98208.92;225674;1280;23756;-75
2023/07/12 16:49:52;;;;;;;3.50;3.10;;;;;;;29.86;48.92;98205.56;225653;1276;24274;-75
2023/07/12 16:54:55;;;;;;;4.60;3.80;;;;;;;29.77;49.12;98206.41;225558;1280;22902;-76
2023/07/12 16:59:58;;;;;;;3.50;3.20;;;;;;;29.65;49.26;98207.38;225773;1275;22571;-74
2023/07/12 17:05:00;;;;;;;4.00;3.60;;;;;;;29.50;49.37;98210.70;225639;1281;24574;-73
2023/07/12 17:10:04;;;;;;;3.90;3.40;;;;;;;29.35;49.78;98210.13;225788;1275;22574;-74
2023/07/12 17:15:11;;;;;;;3.70;3.20;;;;;;;29.22;50.20;98208.95;225781;1278;22546;-74
2023/07/12 17:20:13;;;;;;;4.60;3.80;;;;;;;29.06;50.44;98210.27;225576;1277;22550;-74
2023/07/12 17:25:15;;;;;;;4.20;3.80;;;;;;;28.88;50.81;98225.67;225584;1280;22551;-74
2023/07/12 17:30:18;;;;;;;7.70;7.10;;;;;;;28.66;51.17;98232.04;225627;1280;23323;-74
2023/07/12 17:35:20;;;;;;;4.30;3.90;;;;;;;28.43;51.86;98234.64;225556;1280;22540;-74
2023/07/12 17:40:22;;;;;;;4.30;3.90;;;;;;;28.17;52.38;98232.63;225777;1281;22575;-75
2023/07/12 17:45:24;;;;;;;4.70;4.30;;;;;;;27.87;52.78;98225.37;225791;1278;23260;-74
2023/07/12 17:50:27;;;;;;;3.70;3.40;;;;;;;27.64;53.19;98236.79;225750;1278;23108;-74
2023/07/12 17:55:29;;;;;;;3.80;3.40;;;;;;;27.44;53.66;98237.16;225610;1274;24917;-74
2023/07/12 18:00:32;;;;;;;4.40;3.70;;;;;;;27.26;53.95;98244.34;225698;1278;22564;-74
2023/07/12 18:05:35;;;;;;;4.30;3.30;;;;;;;27.12;54.46;98246.77;225770;1280;24219;-73
2023/07/12 18:10:38;;;;;;;3.80;3.40;;;;;;;26.95;54.68;98248.07;225780;1278;22611;-74
2023/07/12 18:15:40;;;;;;;3.80;3.40;;;;;;;26.79;55.08;98250.73;225579;1281;24220;-74
2023/07/12 18:20:44;;;;;;;3.60;3.30;;;;;;;26.62;55.30;98255.66;225503;1281;198245;-74
2023/07/12 18:25:47;;;;;;;4.20;3.60;;;;;;;26.50;55.70;98256.75;225576;1276;22707;-74
2023/07/12 18:30:52;;;;;;;4.30;3.80;;;;;;;26.40;55.96;98253.40;225595;1280;22532;-74
2023/07/12 18:35:55;;;;;;;4.00;3.60;;;;;;;26.29;56.25;98246.13;225764;1281;24733;-74
2023/07/12 18:41:00;;;;;;;5.70;3.50;;;;;;;26.22;56.53;98247.56;225558;1281;22539;-74
2023/07/12 18:46:04;;;;;;;5.30;4.10;;;;;;;26.17;56.75;98227.23;225617;1279;22539;-74
2023/07/12 18:51:10;;;;;;;4.90;4.40;;;;;;;26.11;57.12;98234.31;225581;1279;22539;-78
2023/07/12 18:56:18;;;;;;;6.10;5.60;;;;;;;25.96;57.41;98218.02;225582;1280;22558;-74
2023/07/12 19:01:27;;;;;;;5.60;4.90;;;;;;;25.79;57.92;98228.23;225729;1278;22557;-76
2023/07/12 19:06:31;;;;;;;6.40;4.80;;;;;;;25.59;58.07;98238.39;225678;1279;22563;-74
2023/07/12 19:11:42;;;;;;;5.30;4.50;;;;;;;25.43;58.51;98254.20;225702;1262;22543;-74
2023/07/12 19:16:44;;;;;;;7.80;6.40;;;;;;;25.30;58.92;98270.98;225640;1267;22572;-74
2023/07/12 19:21:49;;;;;;;5.80;4.40;;;;;;;25.20;59.23;98275.09;225602;1275;22551;-74
2023/07/12 19:26:51;;;;;;;6.10;4.60;;;;;;;25.14;59.35;98282.23;225606;1281;25193;-74
2023/07/12 19:32:10;;;;;;;4.50;4.10;;;;;;;25.07;59.76;98287.46;225637;1275;22555;-74
2023/07/12 19:37:15;;;;;;;4.40;4.00;;;;;;;24.98;60.09;98297.98;225748;1278;22550;-73
2023/07/12 19:42:22;;;;;;;7.10;4.50;;;;;;;24.89;60.45;98307.77;225659;1274;22560;-73
2023/07/12 19:47:24;;;;;;;4.90;4.10;;;;;;;24.82;60.85;98309.37;225584;1276;22553;-74
2023/07/12 19:52:28;;;;;;;5.30;4.00;;;;;;;24.75;61.10;98311.21;225500;1279;22554;-75
2023/07/12 19:57:30;;;;;;;5.40;4.20;;;;;;;24.68;61.29;98313.63;225621;1281;22555;-73
2023/07/12 20:02:32;;;;;;;5.70;4.90;;;;;;;24.61;61.60;98318.81;225773;1277;22555;-73
2023/07/12 20:07:38;;;;;;;6.60;5.50;;;;;;;24.53;61.78;98335.38;225583;1281;26126;-74
2023/07/12 20:12:40;;;;;;;6.30;5.30;;;;;;;24.48;62.03;98343.17;225731;1278;25302;-75
2023/07/12 20:17:42;;;;;;;5.70;5.20;;;;;;;24.42;62.46;98338.60;225772;1278;23285;-74
2023/07/12 20:22:45;;;;;;;6.80;5.90;;;;;;;24.32;62.80;98338.02;225556;1279;22558;-73
2023/07/12 20:27:47;;;;;;;7.80;5.80;;;;;;;24.24;63.14;98345.70;225572;1276;25285;-75
2023/07/12 20:32:49;;;;;;;8.00;7.30;;;;;;;24.17;63.45;98352.36;225767;1281;22615;-73
2023/07/12 20:37:51;;;;;;;17.60;14.90;;;;;;;24.13;63.75;98350.57;225559;1280;24839;-73
2023/07/12 20:42:54;;;;;;;10.20;8.80;;;;;;;24.07;64.07;98352.40;225668;1281;22554;-73
2023/07/12 20:47:57;;;;;;;7.80;6.10;;;;;;;24.00;64.31;98357.23;225652;1281;22545;-73
2023/07/12 20:53:06;;;;;;;5.20;4.60;;;;;;;23.92;64.43;98363.63;225562;1281;22561;-75
2023/07/12 20:58:09;;;;;;;5.40;4.60;;;;;;;23.90;64.58;98356.33;225755;1275;22539;-74
2023/07/12 21:03:16;;;;;;;5.00;4.50;;;;;;;23.88;64.77;98356.76;225694;1278;24356;-74
2023/07/12 21:08:19;;;;;;;4.80;4.30;;;;;;;23.89;65.06;98354.42;225664;1278;24984;-73
2023/07/12 21:13:21;;;;;;;5.40;4.60;;;;;;;23.82;65.12;98362.59;225648;1279;22551;-73
2023/07/12 21:18:31;;;;;;;5.10;4.60;;;;;;;23.80;65.31;98365.41;225645;1279;23507;-74
2023/07/12 21:23:38;;;;;;;6.60;4.90;;;;;;;23.83;65.32;98383.25;225683;1281;23039;-74
2023/07/12 21:28:41;;;;;;;5.40;4.90;;;;;;;23.81;65.54;98415.10;225610;1276;22603;-74
2023/07/12 21:34:08;;;;;;;7.90;5.00;;;;;;;23.72;65.96;98422.69;225721;1281;22553;-74
2023/07/12 21:39:30;;;;;;;6.00;4.40;;;;;;;23.46;66.67;98412.39;225782;1278;22554;-74
2023/07/12 21:44:33;;;;;;;5.40;4.20;;;;;;;23.13;67.46;98399.38;225747;1278;22569;-73
2023/07/12 21:49:35;;;;;;;6.00;4.30;;;;;;;22.84;67.66;98374.20;225814;1278;22581;-76
2023/07/12 21:54:45;;;;;;;4.40;4.00;;;;;;;22.63;68.18;98378.32;225789;1278;22551;-74
2023/07/12 21:59:52;;;;;;;5.40;4.00;;;;;;;22.45;68.57;98373.70;225650;1279;24261;-74
2023/07/12 22:05:00;;;;;;;4.50;4.10;;;;;;;22.29;68.76;98365.57;225768;1281;22665;-74
2023/07/12 22:10:41;;;;;;;6.20;3.50;;;;;;;22.17;69.01;98370.45;225689;1278;22531;-74
2023/07/12 22:15:52;;;;;;;4.80;3.30;;;;;;;22.07;69.39;98379.25;225648;1281;22536;-74
2023/07/12 22:21:01;;;;;;;6.00;4.10;;;;;;;22.00;69.97;98406.09;225548;1280;22543;-74
2023/07/12 22:26:16;;;;;;;8.70;5.30;;;;;;;21.92;71.21;98463.66;225614;1279;22543;-75
2023/07/12 22:31:19;;;;;;;13.50;6.30;;;;;;;21.42;81.17;98498.20;225783;1278;22546;-78
2023/07/12 22:36:46;;;;;;;7.60;4.30;;;;;;;20.53;82.60;98487.38;225735;1278;22548;-78
2023/07/12 22:48:21;;;;;;;5.30;3.10;;;;;;;19.74;81.40;98440.97;225595;1278;22553;-79
2023/07/12 22:53:56;;;;;;;5.40;2.50;;;;;;;19.51;81.02;98404.73;225583;1281;22572;-80
2023/07/12 22:59:33;;;;;;;3.70;2.20;;;;;;;19.32;80.98;98381.08;225732;1281;22671;-78
2023/07/12 23:16:29;;;;;;;6.40;2.60;;;;;;;18.87;81.08;98431.16;225581;1281;25406;-78
2023/07/12 23:21:34;;;;;;;5.40;2.60;;;;;;;18.80;81.22;98432.90;225728;1280;22527;-78
2023/07/12 23:26:48;;;;;;;4.00;3.30;;;;;;;18.76;81.61;98415.29;225651;1280;22526;-77
2023/07/12 23:31:50;;;;;;;;;;;;;;;18.76;81.74;98419.36;225521;1281;22534;-77
2023/07/12 23:37:21;;;;;;;5.50;3.60;;;;;;;18.78;82.10;98408.30;225760;1281;22544;-76
2023/07/12 23:42:36;;;;;;;3.40;3.10;;;;;;;18.82;82.32;98425.76;225602;1281;22544;-78
2023/07/12 23:47:39;;;;;;;3.10;2.60;;;;;;;18.84;82.27;98407.42;225730;1275;22541;-76
2023/07/12 23:52:41;;;;;;;4.10;2.80;;;;;;;18.87;81.89;98404.43;225592;1281;24299;-77
2023/07/12 23:57:51;;;;;;;3.40;2.60;;;;;;;18.87;81.92;98415.79;225732;1275;22539;-77
